Aviation Digital Data Service (ADDS)

Output produced by TAFs form (0623 UTC 26 January 2015)
found at http://aviationweather.gov/adds/tafs/
 
KEGE 260522Z 2606/2706 11003KT P6SM FEW250 
     FM261200 00000KT P6SM FEW250 
     FM261800 VRB04KT P6SM SCT250 
     FM270200 09003KT P6SM FEW250 AMD LTD TO CLD VIS AND WIND TIL 261400